createdAt,value
2023-01-28T00:02:57.762Z,93377.50
2023-01-28T00:08:03.459Z,93372.05
2023-01-28T00:13:09.894Z,93362.48
2023-01-28T00:18:15.297Z,93373.50
2023-01-28T00:23:20.764Z,93374.16
2023-01-28T00:28:26.501Z,93375.66
2023-01-28T00:33:32.637Z,93378.00
2023-01-28T00:38:38.326Z,93386.48
2023-01-28T00:43:45.212Z,93383.09
2023-01-28T00:48:51.238Z,93401.56
2023-01-28T00:53:56.728Z,93386.61
2023-01-28T00:59:02.323Z,93389.02
2023-01-28T01:04:07.965Z,93394.25
2023-01-28T01:09:14.658Z,93401.13
2023-01-28T01:14:20.757Z,93397.76
2023-01-28T01:19:26.962Z,93405.34
2023-01-28T01:24:34.336Z,93394.77
2023-01-28T01:29:39.884Z,93393.48
2023-01-28T01:34:45.688Z,93390.74
2023-01-28T01:39:51.265Z,93400.46
2023-01-28T01:45:06.219Z,93402.92
2023-01-28T01:50:37.075Z,93395.56
2023-01-28T01:55:44.887Z,93399.81
2023-01-28T02:00:50.590Z,93399.47
2023-01-28T02:05:56.421Z,93402.08
2023-01-28T02:11:04.260Z,93420.73
2023-01-28T02:16:10.341Z,93404.65
2023-01-28T02:21:51.633Z,93412.46
2023-01-28T02:27:17.742Z,93405.50
2023-01-28T02:32:32.213Z,93420.39
2023-01-28T02:37:43.660Z,93428.28
2023-01-28T02:42:49.060Z,93416.73
2023-01-28T02:48:00.693Z,93414.40
2023-01-28T02:53:32.230Z,93410.90
2023-01-28T02:58:49.599Z,93206.23
2023-01-28T03:04:06.534Z,93406.67
2023-01-28T03:09:26.929Z,93392.52
2023-01-28T03:14:51.760Z,93391.52
2023-01-28T03:20:14.626Z,93393.34
2023-01-28T03:25:39.173Z,93389.24
2023-01-28T03:31:11.135Z,93394.81
2023-01-28T03:36:34.141Z,93406.76
2023-01-28T03:41:39.498Z,93393.94
2023-01-28T03:46:44.859Z,93396.34
2023-01-28T03:51:50.230Z,93397.84
2023-01-28T03:56:55.621Z,93415.09
2023-01-28T04:02:02.621Z,93405.76
2023-01-28T04:07:10.986Z,93404.77
2023-01-28T04:12:16.495Z,93400.16
2023-01-28T04:17:21.960Z,93397.23
2023-01-28T04:22:27.719Z,93398.64
2023-01-28T04:27:33.135Z,93399.23
2023-01-28T04:32:39.039Z,93396.78
2023-01-28T04:37:44.579Z,93394.86
2023-01-28T04:42:57.858Z,93408.53
2023-01-28T04:48:03.263Z,93419.92
2023-01-28T04:53:09.051Z,93426.73
2023-01-28T04:58:14.628Z,93437.52
2023-01-28T05:03:20.624Z,93453.05
2023-01-28T05:08:26.465Z,93436.25
2023-01-28T05:13:31.866Z,93445.55
2023-01-28T05:18:37.480Z,93439.55
2023-01-28T05:23:42.974Z,93449.85
2023-01-28T05:28:48.640Z,93455.12
2023-01-28T05:33:54.181Z,93463.61
2023-01-28T05:38:59.727Z,93455.45
2023-01-28T05:44:05.107Z,93463.11
2023-01-28T05:49:12.205Z,93468.95
2023-01-28T05:54:17.697Z,93477.55
2023-01-28T05:59:23.234Z,93482.84
2023-01-28T06:04:28.741Z,93489.14
2023-01-28T06:09:34.335Z,93498.94
2023-01-28T06:14:39.638Z,93510.53
2023-01-28T06:19:45.336Z,93501.55
2023-01-28T06:24:51.003Z,93501.73
2023-01-28T06:29:56.426Z,93510.88
2023-01-28T06:35:01.931Z,93519.54
2023-01-28T06:40:08.554Z,93517.14
2023-01-28T06:45:14.302Z,93330.06
2023-01-28T06:50:19.852Z,93542.70
2023-01-28T06:55:25.369Z,93538.64
2023-01-28T07:00:30.992Z,93550.20
2023-01-28T07:05:36.432Z,93553.53
2023-01-28T07:10:41.825Z,93554.22
2023-01-28T07:15:47.347Z,93568.08
2023-01-28T07:20:52.619Z,93560.87
2023-01-28T07:26:02.800Z,93567.58
2023-01-28T07:31:08.274Z,93572.83
2023-01-28T07:36:13.675Z,93573.78
2023-01-28T07:41:18.980Z,93581.13
2023-01-28T07:46:24.359Z,93578.33
2023-01-28T07:51:29.749Z,93583.70
2023-01-28T07:56:53.403Z,93585.37
2023-01-28T08:02:17.529Z,93588.69
2023-01-28T08:07:41.225Z,93586.34
2023-01-28T08:13:05.146Z,93587.58
2023-01-28T08:18:28.390Z,93589.28
2023-01-28T08:23:52.203Z,93584.63
2023-01-28T08:59:04.738Z,93620.86
2023-01-28T09:04:28.586Z,93636.72
2023-01-28T09:09:52.256Z,93630.59
2023-01-28T09:15:16.109Z,93639.27
2023-01-28T09:20:40.374Z,93645.40
2023-01-28T09:26:04.552Z,93653.48
2023-01-28T09:31:28.221Z,93654.77
2023-01-28T09:36:52.130Z,93656.06
2023-01-28T09:42:37.316Z,93454.72
2023-01-28T09:48:03.277Z,93666.80
2023-01-28T09:53:31.946Z,93662.17
2023-01-28T09:58:55.271Z,93657.57
2023-01-28T10:04:24.910Z,93654.37
2023-01-28T10:09:50.798Z,93658.92
2023-01-28T10:15:32.462Z,93656.77
2023-01-28T10:20:59.657Z,93649.61
2023-01-28T10:26:29.656Z,93655.18
2023-01-28T10:32:01.297Z,93653.61
2023-01-28T10:37:24.576Z,93657.02
2023-01-28T10:42:48.679Z,93666.42
2023-01-28T10:48:24.379Z,93660.88
2023-01-28T10:53:40.914Z,93649.82
2023-01-28T10:58:58.858Z,93662.66
2023-01-28T11:04:04.259Z,93661.44
2023-01-28T11:09:21.404Z,93656.92
2023-01-28T11:14:28.413Z,93655.36
2023-01-28T11:19:35.746Z,93652.44
2023-01-28T11:24:41.171Z,93650.47
2023-01-28T11:29:46.815Z,93648.62
2023-01-28T11:34:58.491Z,93644.75
2023-01-28T11:40:25.287Z,93659.48
2023-01-28T11:45:45.808Z,93637.36
2023-01-28T11:50:57.295Z,93644.87
2023-01-28T11:56:14.645Z,93628.48
2023-01-28T12:01:26.301Z,93629.35
2023-01-28T12:06:55.609Z,93628.45
2023-01-28T12:12:12.640Z,93624.31
2023-01-28T12:17:26.299Z,93619.44
2023-01-28T12:22:34.485Z,93618.67
2023-01-28T12:27:59.286Z,93621.14
2023-01-28T12:33:39.129Z,93619.09
2023-01-28T12:39:20.870Z,93621.81
2023-01-28T12:44:29.369Z,93614.71
2023-01-28T12:49:46.892Z,93612.59
2023-01-28T12:55:01.668Z,93616.39
2023-01-28T13:00:22.083Z,93616.80
2023-01-28T13:05:30.665Z,93636.16
2023-01-28T13:10:47.127Z,93625.73
2023-01-28T13:15:52.767Z,93617.10
2023-01-28T13:20:58.133Z,93617.81
2023-01-28T13:26:24.674Z,93622.13
2023-01-28T13:31:32.728Z,93623.02
2023-01-28T13:36:46.683Z,93638.06
2023-01-28T13:41:58.789Z,93634.16
2023-01-28T13:47:15.946Z,93642.16
2023-01-28T13:52:29.552Z,93648.78
2023-01-28T13:57:54.507Z,93656.08
2023-01-28T14:03:26.755Z,93660.52
2023-01-28T14:08:44.693Z,93667.41
2023-01-28T14:13:56.140Z,93671.91
2023-01-28T14:19:03.297Z,93669.11
2023-01-28T14:24:11.831Z,93677.83
2023-01-28T14:29:47.213Z,93693.98
2023-01-28T14:34:52.826Z,93678.66
2023-01-28T14:40:00.831Z,93690.77
2023-01-28T14:45:09.828Z,93694.25
2023-01-28T14:50:45.470Z,93505.78
2023-01-28T14:56:02.729Z,93703.50
2023-01-28T15:01:11.133Z,93706.82
2023-01-28T15:06:21.073Z,93713.02
2023-01-28T15:11:28.297Z,93715.94
2023-01-28T15:16:35.397Z,93716.12
2023-01-28T15:21:41.155Z,93725.08
2023-01-28T15:26:48.588Z,93737.13
2023-01-28T15:31:54.882Z,93733.45
2023-01-28T15:37:01.957Z,93547.73
2023-01-28T15:42:08.854Z,93737.23
2023-01-28T15:47:25.210Z,93745.72
2023-01-28T15:52:42.183Z,93752.23
2023-01-28T15:57:48.089Z,93752.93
2023-01-28T16:02:59.184Z,93756.05
2023-01-28T16:08:13.401Z,93759.48
2023-01-28T16:13:24.244Z,93765.48
2023-01-28T16:18:41.538Z,93772.58
2023-01-28T16:24:04.558Z,93784.77
2023-01-28T16:29:17.490Z,93784.81
2023-01-28T16:34:23.290Z,93790.88
2023-01-28T16:39:30.167Z,93791.13
2023-01-28T16:44:35.773Z,93796.48
2023-01-28T16:49:41.367Z,93803.67
2023-01-28T16:54:47.204Z,93808.31
2023-01-28T16:59:52.976Z,93812.30
2023-01-28T17:04:58.524Z,93827.13
2023-01-28T17:10:04.880Z,93822.84
2023-01-28T17:15:11.139Z,93827.12
2023-01-28T17:20:16.736Z,93830.53
2023-01-28T17:25:22.300Z,93832.84
2023-01-28T17:30:27.955Z,93839.44
2023-01-28T17:35:35.756Z,93842.35
2023-01-28T17:40:41.748Z,93842.91
2023-01-28T17:45:47.456Z,93849.87
2023-01-28T17:50:54.405Z,93852.05
2023-01-28T17:55:59.808Z,93868.59
2023-01-28T18:01:10.769Z,93871.47
2023-01-28T18:06:16.895Z,93872.50
2023-01-28T18:11:22.581Z,93884.33
2023-01-28T18:16:28.434Z,93874.80
2023-01-28T18:21:51.863Z,93873.25
2023-01-28T18:26:44.408Z,93688.47
2023-01-28T18:31:50.353Z,93884.36
2023-01-28T18:36:57.643Z,93881.26
2023-01-28T18:42:03.284Z,93886.46
2023-01-28T18:47:08.940Z,93897.18
2023-01-28T18:52:14.364Z,93900.47
2023-01-28T18:57:21.298Z,93902.30
2023-01-28T19:02:26.729Z,93904.22
2023-01-28T19:07:32.874Z,93910.64
2023-01-28T19:12:38.354Z,93905.02
2023-01-28T19:17:43.716Z,93904.38
2023-01-28T19:22:49.231Z,93920.91
2023-01-28T19:27:55.241Z,93913.33
2023-01-28T19:33:01.180Z,93929.83
2023-01-28T19:38:08.698Z,93929.44
2023-01-28T19:43:14.038Z,93925.25
2023-01-28T19:48:19.482Z,93933.22
2023-01-28T19:53:25.285Z,93939.33
2023-01-28T19:58:32.370Z,93936.14
2023-01-28T20:03:38.268Z,93926.33
2023-01-28T20:08:44.227Z,93940.05
2023-01-28T20:13:50.440Z,93942.54
2023-01-28T20:19:01.497Z,93943.23
2023-01-28T20:24:07.976Z,93941.88
2023-01-28T20:29:15.411Z,93954.37
2023-01-28T20:34:21.788Z,93952.55
2023-01-28T20:39:27.295Z,93960.64
2023-01-28T20:44:33.013Z,93966.20
2023-01-28T20:49:38.893Z,93967.34
2023-01-28T20:54:44.730Z,93971.45
2023-01-28T20:59:50.761Z,93967.19
2023-01-28T21:04:56.889Z,93973.05
2023-01-28T21:10:02.688Z,93970.00
2023-01-28T21:15:09.818Z,93972.09
2023-01-28T21:20:15.615Z,93982.12
2023-01-28T21:25:22.166Z,93977.80
2023-01-28T21:30:27.748Z,93985.14
2023-01-28T21:35:33.864Z,93981.47
2023-01-28T21:40:39.740Z,93984.27
2023-01-28T21:45:46.793Z,93988.66
2023-01-28T21:51:10.008Z,93995.19
2023-01-28T21:56:15.577Z,93998.52
2023-01-28T22:01:21.240Z,94000.70
2023-01-28T22:06:26.815Z,93997.70
2023-01-28T22:11:32.745Z,94003.33
2023-01-28T22:16:38.420Z,94004.09
2023-01-28T22:21:46.398Z,94008.49
2023-01-28T22:26:52.435Z,94012.89
2023-01-28T22:31:58.383Z,94012.36
2023-01-28T22:37:03.826Z,94010.36
2023-01-28T22:42:09.533Z,94000.00
2023-01-28T22:47:15.132Z,94007.75
2023-01-28T22:52:20.690Z,94012.84
2023-01-28T22:57:26.341Z,94008.38
2023-01-28T23:02:32.088Z,94012.02
2023-01-28T23:07:37.881Z,94016.00
2023-01-28T23:12:44.447Z,94011.59
2023-01-28T23:18:07.688Z,94014.12
2023-01-28T23:23:35.291Z,94016.34
2023-01-28T23:28:41.072Z,94018.91
2023-01-28T23:33:46.877Z,94015.31
2023-01-28T23:38:52.420Z,94018.76
2023-01-28T23:43:58.007Z,94026.03
2023-01-28T23:49:05.577Z,94025.08
2023-01-28T23:54:12.786Z,94017.64
2023-01-28T23:59:18.395Z,94017.80
